createdAt,value
2019-05-10T00:00:07.630Z,32.50
2019-05-10T00:00:59.186Z,32.85
2019-05-10T00:01:50.735Z,31.93
2019-05-10T00:02:42.201Z,31.85
2019-05-10T00:03:33.651Z,32.30
2019-05-10T00:04:25.192Z,32.03
2019-05-10T00:05:16.239Z,32.10
2019-05-10T00:06:07.412Z,32.10
2019-05-10T00:06:58.918Z,32.15
2019-05-10T00:07:52.021Z,31.90
2019-05-10T00:08:43.585Z,31.23
2019-05-10T00:09:16.419Z,31.35
2019-05-10T00:09:48.940Z,31.40
2019-05-10T00:10:21.619Z,31.80
2019-05-10T00:11:33.098Z,31.40
2019-05-10T00:12:16.846Z,30.95
2019-05-10T00:13:16.436Z,29.90
2019-05-10T00:13:55.655Z,30.20
2019-05-10T00:14:44.035Z,30.37
2019-05-10T00:15:19.046Z,30.12
2019-05-10T00:15:52.255Z,30.20
2019-05-10T00:16:26.559Z,30.30
2019-05-10T00:17:19.060Z,30.12
2019-05-10T00:17:53.956Z,30.32
2019-05-10T00:18:27.009Z,29.80
2019-05-10T00:19:00.045Z,30.25
2019-05-10T00:19:32.921Z,29.72
2019-05-10T00:20:06.324Z,29.25
2019-05-10T00:20:40.056Z,30.17
2019-05-10T00:21:12.932Z,29.85
2019-05-10T00:21:45.854Z,29.72
2019-05-10T00:22:20.818Z,29.85
2019-05-10T00:22:53.624Z,29.23
2019-05-10T00:23:26.571Z,29.87
2019-05-10T00:23:59.556Z,29.45
2019-05-10T00:24:32.587Z,29.72
2019-05-10T00:25:06.059Z,30.20
2019-05-10T00:25:40.918Z,29.98
2019-05-10T00:26:14.034Z,30.00
2019-05-10T00:26:47.654Z,30.20
2019-05-10T00:27:20.644Z,29.80
2019-05-10T00:27:54.789Z,30.15
2019-05-10T00:28:27.785Z,29.57
2019-05-10T00:29:00.922Z,29.50
2019-05-10T00:29:33.926Z,29.20
2019-05-10T00:30:07.073Z,29.32
2019-05-10T00:30:40.121Z,29.60
2019-05-10T00:31:14.179Z,29.50
2019-05-10T00:31:49.956Z,29.98
2019-05-10T00:32:23.380Z,29.32
2019-05-10T00:32:56.319Z,29.77
2019-05-10T00:33:29.252Z,29.32
2019-05-10T00:34:02.257Z,29.50
2019-05-10T00:34:35.180Z,29.30
2019-05-10T00:35:08.274Z,29.75
2019-05-10T00:35:41.318Z,29.37
2019-05-10T00:36:14.199Z,29.77
2019-05-10T00:36:47.261Z,29.48
2019-05-10T00:37:20.186Z,29.77
2019-05-10T00:37:54.746Z,29.52
2019-05-10T00:38:27.832Z,28.87
2019-05-10T00:39:00.906Z,29.37
2019-05-10T00:39:34.004Z,29.60
2019-05-10T00:40:07.303Z,29.52
2019-05-10T00:40:40.491Z,29.50
2019-05-10T00:41:13.559Z,29.77
2019-05-10T00:41:46.706Z,29.65
2019-05-10T00:42:19.751Z,29.10
2019-05-10T00:42:52.729Z,29.25
2019-05-10T00:43:25.677Z,29.27
2019-05-10T00:43:58.712Z,29.32
2019-05-10T00:44:31.794Z,29.20
2019-05-10T00:45:06.024Z,29.20
2019-05-10T00:45:38.987Z,29.27
2019-05-10T00:46:11.917Z,29.23
2019-05-10T00:46:45.236Z,29.05
2019-05-10T00:47:18.173Z,29.10
2019-05-10T00:47:51.486Z,29.32
2019-05-10T00:48:24.636Z,29.48
2019-05-10T00:48:57.836Z,29.57
2019-05-10T00:49:31.064Z,29.42
2019-05-10T00:50:04.612Z,28.92
2019-05-10T00:50:37.775Z,28.90
2019-05-10T00:51:11.534Z,29.18
2019-05-10T00:51:44.701Z,29.18
2019-05-10T00:52:17.839Z,29.35
2019-05-10T00:52:51.109Z,29.30
2019-05-10T00:53:24.197Z,29.42
2019-05-10T00:53:57.250Z,29.70
2019-05-10T00:54:30.197Z,29.37
2019-05-10T00:55:17.750Z,29.72
2019-05-10T00:55:39.259Z,28.80
2019-05-10T00:56:12.297Z,29.63
2019-05-10T00:56:46.079Z,29.77
2019-05-10T00:57:19.416Z,29.52
2019-05-10T00:57:52.623Z,29.27
2019-05-10T00:58:25.587Z,29.63
2019-05-10T00:58:58.579Z,29.70
2019-05-10T00:59:31.681Z,28.90
2019-05-10T01:00:05.405Z,29.52
2019-05-10T01:00:39.127Z,29.65
2019-05-10T01:01:12.178Z,29.50
2019-05-10T01:01:56.002Z,29.82
2019-05-10T01:02:28.923Z,30.10
2019-05-10T01:03:01.789Z,29.27
2019-05-10T01:03:34.951Z,29.23
2019-05-10T01:04:08.179Z,28.98
2019-05-10T01:04:41.034Z,29.18
2019-05-10T01:05:14.199Z,29.63
2019-05-10T01:05:47.189Z,29.30
2019-05-10T01:06:20.235Z,29.07
2019-05-10T01:06:56.212Z,29.77
2019-05-10T01:07:28.311Z,29.23
2019-05-10T01:08:01.349Z,29.50
2019-05-10T01:08:34.364Z,29.52
2019-05-10T01:09:10.861Z,29.42
2019-05-10T01:09:44.002Z,28.65
2019-05-10T01:10:17.131Z,29.25
2019-05-10T01:10:50.221Z,29.18
2019-05-10T01:11:23.693Z,29.02
2019-05-10T01:11:56.765Z,29.37
2019-05-10T01:12:29.943Z,29.50
2019-05-10T01:13:04.072Z,29.20
2019-05-10T01:13:37.225Z,28.95
2019-05-10T01:14:10.306Z,29.10
2019-05-10T01:14:43.407Z,29.40
2019-05-10T01:15:16.551Z,29.30
2019-05-10T01:15:49.667Z,29.27
2019-05-10T01:16:22.708Z,29.70
2019-05-10T01:16:55.696Z,29.60
2019-05-10T01:17:28.642Z,29.52
2019-05-10T01:18:01.644Z,29.27
2019-05-10T01:18:34.806Z,29.05
2019-05-10T01:19:07.871Z,29.20
2019-05-10T01:19:40.961Z,29.30
2019-05-10T01:20:14.291Z,29.12
2019-05-10T01:20:47.327Z,29.07
2019-05-10T01:21:22.562Z,29.05
2019-05-10T01:21:55.764Z,28.90
2019-05-10T01:22:28.784Z,29.25
2019-05-10T01:23:03.568Z,29.40
2019-05-10T01:23:36.651Z,29.35
2019-05-10T01:24:09.719Z,29.20
2019-05-10T01:24:42.898Z,29.30
2019-05-10T01:25:33.658Z,29.30
2019-05-10T01:25:52.634Z,29.10
2019-05-10T01:26:25.664Z,29.37
2019-05-10T01:27:00.420Z,29.10
2019-05-10T01:27:33.384Z,29.12
2019-05-10T01:28:06.470Z,29.18
2019-05-10T01:28:39.565Z,29.35
2019-05-10T01:29:12.485Z,29.37
2019-05-10T01:29:45.540Z,29.55
2019-05-10T01:30:19.099Z,29.55
2019-05-10T01:30:52.217Z,29.82
2019-05-10T01:31:25.342Z,29.23
2019-05-10T01:31:58.580Z,29.48
2019-05-10T01:32:31.686Z,29.60
2019-05-10T01:33:04.816Z,29.52
2019-05-10T01:33:37.723Z,29.32
2019-05-10T01:34:10.653Z,29.57
2019-05-10T01:34:43.760Z,29.55
2019-05-10T01:35:16.906Z,29.73
2019-05-10T01:35:51.066Z,29.52
2019-05-10T01:36:24.224Z,29.85
2019-05-10T01:36:57.257Z,29.65
2019-05-10T01:37:30.319Z,29.40
2019-05-10T01:38:03.336Z,29.30
2019-05-10T01:38:36.377Z,29.48
2019-05-10T01:39:09.296Z,29.77
2019-05-10T01:39:42.253Z,29.37
2019-05-10T01:40:15.384Z,29.75
2019-05-10T01:40:49.222Z,29.60
2019-05-10T01:41:22.041Z,29.70
2019-05-10T01:41:55.123Z,29.95
2019-05-10T01:42:28.211Z,29.67
2019-05-10T01:43:01.427Z,29.77
2019-05-10T01:43:34.456Z,29.63
2019-05-10T01:44:07.511Z,30.10
2019-05-10T01:44:40.428Z,30.25
2019-05-10T01:45:13.674Z,30.10
2019-05-10T01:45:46.780Z,29.80
2019-05-10T01:46:19.832Z,29.60
2019-05-10T01:46:52.845Z,29.92
2019-05-10T01:47:25.649Z,29.55
2019-05-10T01:47:58.536Z,29.23
2019-05-10T01:48:31.559Z,29.65
2019-05-10T01:49:04.669Z,28.90
2019-05-10T01:49:37.586Z,29.40
2019-05-10T01:50:12.121Z,28.87
2019-05-10T01:50:45.151Z,28.83
2019-05-10T01:51:18.065Z,28.80
2019-05-10T01:51:51.005Z,29.00
2019-05-10T01:52:23.948Z,28.55
2019-05-10T01:52:57.023Z,28.83
2019-05-10T01:53:30.148Z,28.65
2019-05-10T01:54:03.353Z,29.02
2019-05-10T01:54:36.341Z,28.62
2019-05-10T01:55:09.459Z,28.77
2019-05-10T01:55:51.530Z,28.85
2019-05-10T01:56:17.543Z,28.70
2019-05-10T01:56:50.568Z,28.50
2019-05-10T01:57:23.572Z,28.60
2019-05-10T01:57:56.377Z,28.60
2019-05-10T01:58:29.493Z,28.62
2019-05-10T01:59:02.543Z,29.25
2019-05-10T01:59:35.363Z,28.92
2019-05-10T02:00:09.633Z,28.70
2019-05-10T02:00:42.891Z,28.42
2019-05-10T02:01:15.999Z,29.27
2019-05-10T02:01:49.116Z,28.60
2019-05-10T02:02:22.149Z,29.07
2019-05-10T02:02:55.160Z,28.90
2019-05-10T02:03:28.183Z,29.00
2019-05-10T02:04:01.249Z,29.00
2019-05-10T02:04:34.261Z,28.95
2019-05-10T02:05:07.768Z,29.15
2019-05-10T02:05:40.854Z,29.30
2019-05-10T02:06:13.933Z,29.25
2019-05-10T02:06:47.155Z,28.87
2019-05-10T02:07:20.219Z,29.27
2019-05-10T02:07:53.218Z,29.10
2019-05-10T02:08:26.311Z,28.83
2019-05-10T02:08:59.396Z,29.10
2019-05-10T02:09:33.431Z,29.00
2019-05-10T02:10:07.030Z,29.15
2019-05-10T02:10:40.478Z,29.37
2019-05-10T02:11:13.493Z,29.50
2019-05-10T02:11:46.520Z,29.30
2019-05-10T02:12:20.479Z,29.00
2019-05-10T02:12:53.525Z,29.32
2019-05-10T02:13:26.811Z,28.83
2019-05-10T02:13:59.851Z,29.12
2019-05-10T02:14:32.767Z,29.20
2019-05-10T02:15:06.359Z,29.48
2019-05-10T02:15:39.595Z,29.30
2019-05-10T02:16:12.674Z,29.35
2019-05-10T02:16:46.711Z,29.40
2019-05-10T02:17:20.136Z,29.05
2019-05-10T02:17:53.142Z,29.40
2019-05-10T02:18:26.419Z,29.25
2019-05-10T02:18:59.337Z,29.35
2019-05-10T02:19:32.360Z,29.42
2019-05-10T02:20:06.081Z,29.30
2019-05-10T02:20:39.241Z,29.32
2019-05-10T02:21:12.273Z,29.72
2019-05-10T02:21:45.270Z,29.50
2019-05-10T02:22:18.393Z,29.12
2019-05-10T02:22:51.412Z,29.30
2019-05-10T02:23:24.513Z,29.50
2019-05-10T02:23:57.523Z,29.52
2019-05-10T02:24:30.555Z,29.80
2019-05-10T02:25:05.365Z,29.65
2019-05-10T02:25:38.505Z,30.10
2019-05-10T02:26:11.621Z,29.40
2019-05-10T02:26:44.554Z,29.45
2019-05-10T02:27:17.605Z,29.80
2019-05-10T02:27:50.615Z,28.90
2019-05-10T02:28:23.706Z,29.23
2019-05-10T02:28:57.154Z,29.02
2019-05-10T02:29:30.247Z,29.10
2019-05-10T02:30:06.024Z,28.87
2019-05-10T02:30:38.950Z,29.18
2019-05-10T02:31:11.941Z,28.92
2019-05-10T02:31:44.923Z,28.85
2019-05-10T02:32:32.029Z,28.45
2019-05-10T02:33:05.419Z,28.90
2019-05-10T02:33:38.317Z,28.80
2019-05-10T02:34:11.149Z,28.60
2019-05-10T02:34:44.600Z,28.40
2019-05-10T02:35:17.719Z,28.60
2019-05-10T02:35:50.917Z,28.35
2019-05-10T02:36:25.068Z,28.85
2019-05-10T02:36:58.102Z,28.85
2019-05-10T02:37:32.185Z,28.35
2019-05-10T02:38:05.228Z,28.85
2019-05-10T02:38:38.410Z,28.50
2019-05-10T02:39:11.407Z,28.40
2019-05-10T02:39:44.315Z,28.73
2019-05-10T02:40:19.081Z,28.35
2019-05-10T02:40:52.103Z,28.25
2019-05-10T02:41:26.354Z,28.32
2019-05-10T02:41:59.577Z,28.50
2019-05-10T02:42:34.184Z,28.30
2019-05-10T02:43:07.119Z,28.50
2019-05-10T02:43:40.212Z,28.35
2019-05-10T02:44:13.140Z,29.12
2019-05-10T02:44:47.465Z,28.40
2019-05-10T02:45:20.645Z,28.20
2019-05-10T02:45:53.749Z,28.38
2019-05-10T02:46:26.801Z,28.70
2019-05-10T02:47:07.118Z,28.38
2019-05-10T02:47:40.305Z,28.62
2019-05-10T02:48:13.223Z,28.70
2019-05-10T02:48:46.303Z,28.57
2019-05-10T02:49:19.335Z,28.27
2019-05-10T02:49:52.287Z,28.70
2019-05-10T02:50:25.197Z,28.38
2019-05-10T02:50:58.364Z,28.50
2019-05-10T02:51:31.275Z,28.50
2019-05-10T02:52:05.523Z,28.32
2019-05-10T02:52:38.624Z,28.87
2019-05-10T02:53:11.877Z,28.77
2019-05-10T02:53:45.014Z,28.75
2019-05-10T02:54:18.146Z,28.83
2019-05-10T02:54:51.742Z,28.65
2019-05-10T02:55:25.141Z,28.60
2019-05-10T02:55:58.147Z,28.60
2019-05-10T02:56:31.920Z,28.60
2019-05-10T02:57:07.317Z,28.40
2019-05-10T02:57:40.662Z,28.52
2019-05-10T02:58:15.300Z,28.45
2019-05-10T02:58:49.451Z,28.75
2019-05-10T02:59:22.599Z,28.30
2019-05-10T02:59:56.970Z,28.15
2019-05-10T03:00:33.604Z,28.50
2019-05-10T03:01:09.156Z,28.60
2019-05-10T03:01:45.633Z,28.40
2019-05-10T03:02:22.381Z,28.62
2019-05-10T03:02:56.047Z,28.80
2019-05-10T03:03:31.297Z,28.80
2019-05-10T03:04:04.323Z,28.45
2019-05-10T03:04:38.602Z,28.70
2019-05-10T03:05:12.728Z,28.52
2019-05-10T03:05:49.021Z,28.62
2019-05-10T03:06:25.265Z,28.40
2019-05-10T03:07:06.061Z,28.10
2019-05-10T03:07:39.063Z,28.77
2019-05-10T03:08:14.572Z,28.32
2019-05-10T03:08:50.685Z,28.45
2019-05-10T03:09:29.282Z,29.07
2019-05-10T03:10:03.774Z,29.42
2019-05-10T03:10:39.602Z,28.27
2019-05-10T03:11:14.138Z,28.57
2019-05-10T03:11:48.531Z,28.20
2019-05-10T03:12:23.993Z,28.60
2019-05-10T03:12:59.859Z,28.10
2019-05-10T03:13:32.988Z,28.70
2019-05-10T03:14:10.446Z,28.47
2019-05-10T03:14:45.260Z,28.32
2019-05-10T03:15:18.314Z,28.60
2019-05-10T03:15:54.821Z,28.77
2019-05-10T03:16:31.951Z,28.30
2019-05-10T03:17:14.878Z,28.62
2019-05-10T03:17:51.561Z,28.87
2019-05-10T03:18:26.918Z,28.32
2019-05-10T03:19:02.432Z,28.47
2019-05-10T03:19:37.849Z,28.90
2019-05-10T03:20:12.733Z,28.42
2019-05-10T03:20:47.990Z,28.50
2019-05-10T03:21:22.615Z,28.38
2019-05-10T03:22:05.313Z,28.67
2019-05-10T03:22:42.607Z,28.57
2019-05-10T03:23:16.140Z,28.80
2019-05-10T03:23:49.447Z,28.85
2019-05-10T03:24:27.555Z,28.80
2019-05-10T03:24:57.882Z,29.05
2019-05-10T03:25:30.949Z,28.50
2019-05-10T03:26:03.942Z,29.10
2019-05-10T03:26:50.487Z,29.20
2019-05-10T03:27:15.076Z,28.80
2019-05-10T03:27:48.100Z,29.00
2019-05-10T03:28:21.138Z,29.00
2019-05-10T03:28:54.174Z,29.82
2019-05-10T03:29:27.207Z,28.83
2019-05-10T03:30:00.573Z,28.85
2019-05-10T03:30:33.585Z,28.92
2019-05-10T03:31:06.640Z,28.50
2019-05-10T03:31:39.651Z,28.80
2019-05-10T03:32:12.839Z,28.80
2019-05-10T03:32:46.034Z,28.50
2019-05-10T03:33:19.379Z,28.80
2019-05-10T03:33:56.754Z,28.80
2019-05-10T03:34:27.353Z,28.67
2019-05-10T03:35:00.395Z,29.18
2019-05-10T03:35:33.344Z,28.98
2019-05-10T03:36:06.470Z,28.92
2019-05-10T03:36:39.717Z,28.95
2019-05-10T03:37:12.719Z,28.95
2019-05-10T03:37:47.112Z,29.02
2019-05-10T03:38:20.576Z,28.73
2019-05-10T03:38:53.881Z,29.00
2019-05-10T03:39:26.842Z,28.73
2019-05-10T03:39:59.806Z,28.50
2019-05-10T03:40:32.717Z,28.75
2019-05-10T03:41:05.784Z,29.52
2019-05-10T03:41:38.872Z,29.32
2019-05-10T03:42:12.029Z,28.83
2019-05-10T03:42:45.055Z,29.20
2019-05-10T03:43:17.987Z,28.98
2019-05-10T03:43:51.045Z,28.52
2019-05-10T03:44:24.203Z,29.57
2019-05-10T03:44:57.264Z,28.90
2019-05-10T03:45:30.289Z,29.00
2019-05-10T03:46:03.443Z,28.90
2019-05-10T03:46:36.567Z,29.15
2019-05-10T03:47:09.709Z,29.23
2019-05-10T03:47:42.763Z,28.80
2019-05-10T03:48:15.691Z,29.85
2019-05-10T03:48:48.921Z,29.45
2019-05-10T03:49:21.964Z,29.50
2019-05-10T03:49:55.061Z,29.18
2019-05-10T03:50:28.097Z,29.20
2019-05-10T03:51:01.073Z,29.48
2019-05-10T03:51:34.122Z,29.30
2019-05-10T03:52:07.272Z,29.35
2019-05-10T03:52:40.266Z,29.20
2019-05-10T03:53:13.350Z,29.60
2019-05-10T03:53:46.344Z,29.85
2019-05-10T03:54:19.461Z,29.57
2019-05-10T03:54:52.492Z,29.90
2019-05-10T03:55:26.016Z,29.60
2019-05-10T03:55:59.138Z,29.80
2019-05-10T03:56:32.318Z,29.87
2019-05-10T03:57:14.462Z,30.15
2019-05-10T03:57:40.499Z,29.87
2019-05-10T03:58:13.623Z,30.05
2019-05-10T03:58:46.833Z,29.77
2019-05-10T03:59:19.763Z,29.20
2019-05-10T03:59:52.967Z,29.45
2019-05-10T04:00:26.464Z,29.63
2019-05-10T04:00:59.594Z,29.70
2019-05-10T04:01:32.482Z,29.42
2019-05-10T04:02:05.486Z,29.57
2019-05-10T04:02:39.475Z,30.32
2019-05-10T04:03:12.610Z,29.87
2019-05-10T04:03:45.505Z,30.15
2019-05-10T04:04:18.713Z,30.02
2019-05-10T04:04:51.617Z,29.87
2019-05-10T04:05:24.765Z,29.87
2019-05-10T04:05:57.689Z,30.20
2019-05-10T04:06:30.686Z,30.37
2019-05-10T04:07:03.719Z,30.10
2019-05-10T04:07:36.850Z,30.50
2019-05-10T04:08:09.969Z,30.02
2019-05-10T04:08:43.225Z,29.87
2019-05-10T04:09:16.197Z,29.92
2019-05-10T04:09:49.272Z,29.95
2019-05-10T04:10:22.329Z,29.48
2019-05-10T04:10:55.316Z,29.95
2019-05-10T04:11:28.342Z,29.57
2019-05-10T04:12:01.299Z,30.02
2019-05-10T04:12:34.466Z,30.35
2019-05-10T04:13:07.606Z,29.92
2019-05-10T04:13:40.793Z,29.87
2019-05-10T04:14:13.800Z,29.92
2019-05-10T04:14:46.901Z,29.60
2019-05-10T04:15:20.090Z,29.50
2019-05-10T04:15:56.098Z,29.42
2019-05-10T04:16:29.235Z,28.62
2019-05-10T04:17:02.245Z,29.67
2019-05-10T04:17:35.445Z,29.30
2019-05-10T04:18:08.461Z,29.07
2019-05-10T04:18:41.436Z,29.18
2019-05-10T04:19:14.466Z,29.37
2019-05-10T04:19:47.558Z,29.32
2019-05-10T04:20:21.699Z,29.23
2019-05-10T04:20:54.883Z,29.25
2019-05-10T04:21:28.034Z,29.52
2019-05-10T04:22:01.202Z,29.57
2019-05-10T04:22:34.321Z,29.18
2019-05-10T04:23:07.524Z,29.63
2019-05-10T04:23:40.476Z,29.35
2019-05-10T04:24:13.421Z,28.80
2019-05-10T04:24:46.335Z,29.07
2019-05-10T04:25:19.480Z,28.92
2019-05-10T04:25:52.473Z,29.18
2019-05-10T04:26:26.985Z,28.50
2019-05-10T04:27:01.223Z,29.20
2019-05-10T04:27:34.420Z,29.87
2019-05-10T04:28:07.532Z,29.00
2019-05-10T04:28:40.671Z,29.25
2019-05-10T04:29:13.823Z,29.00
2019-05-10T04:29:46.979Z,29.12
2019-05-10T04:30:21.872Z,28.73
2019-05-10T04:30:55.091Z,29.20
2019-05-10T04:31:28.005Z,28.95
2019-05-10T04:32:01.095Z,28.70
2019-05-10T04:32:34.238Z,28.92
2019-05-10T04:33:07.394Z,28.65
2019-05-10T04:33:40.498Z,28.80
2019-05-10T04:34:13.599Z,28.67
2019-05-10T04:34:46.635Z,29.15
2019-05-10T04:35:19.692Z,28.57
2019-05-10T04:35:52.752Z,28.60
2019-05-10T04:36:25.880Z,29.57
2019-05-10T04:36:58.925Z,28.85
2019-05-10T04:37:33.560Z,28.45
2019-05-10T04:38:06.709Z,29.10
2019-05-10T04:38:39.847Z,28.47
2019-05-10T04:39:12.846Z,28.42
2019-05-10T04:39:46.049Z,28.70
2019-05-10T04:40:19.040Z,28.95
2019-05-10T04:40:52.102Z,28.83
2019-05-10T04:41:25.171Z,28.27
2019-05-10T04:41:58.294Z,28.52
2019-05-10T04:42:31.488Z,28.92
2019-05-10T04:43:04.550Z,28.65
2019-05-10T04:43:37.632Z,28.67
2019-05-10T04:44:11.590Z,28.32
2019-05-10T04:44:44.742Z,28.30
2019-05-10T04:45:18.232Z,28.40
2019-05-10T04:45:51.132Z,28.27
2019-05-10T04:46:24.592Z,28.40
2019-05-10T04:46:57.475Z,28.90
2019-05-10T04:47:31.560Z,28.50
2019-05-10T04:48:04.708Z,28.62
2019-05-10T04:48:37.765Z,28.80
2019-05-10T04:49:10.671Z,28.10
2019-05-10T04:49:44.714Z,28.35
2019-05-10T04:50:17.749Z,28.17
2019-05-10T04:50:50.777Z,27.90
2019-05-10T04:51:24.900Z,28.70
2019-05-10T04:51:58.053Z,28.20
2019-05-10T04:52:31.223Z,28.20
2019-05-10T04:53:04.466Z,28.35
2019-05-10T04:53:37.411Z,28.30
2019-05-10T04:54:10.521Z,28.30
2019-05-10T04:54:43.359Z,28.15
2019-05-10T04:55:16.324Z,28.47
2019-05-10T04:55:49.341Z,28.32
2019-05-10T04:56:22.589Z,28.25
2019-05-10T04:56:59.972Z,28.20
2019-05-10T04:57:47.937Z,28.25
2019-05-10T04:58:05.540Z,28.25
2019-05-10T04:58:39.793Z,28.20
2019-05-10T04:59:12.814Z,28.12
2019-05-10T04:59:46.882Z,28.10
2019-05-10T05:00:20.019Z,28.15
2019-05-10T05:00:53.059Z,28.20
2019-05-10T05:01:26.051Z,28.07
2019-05-10T05:01:59.235Z,28.50
2019-05-10T05:02:32.246Z,28.05
2019-05-10T05:03:05.389Z,28.00
2019-05-10T05:03:39.519Z,27.65
2019-05-10T05:04:12.391Z,27.98
2019-05-10T05:04:45.461Z,27.93
2019-05-10T05:05:18.619Z,27.65
2019-05-10T05:05:51.528Z,28.02
2019-05-10T05:06:24.560Z,27.80
2019-05-10T05:06:57.582Z,27.75
2019-05-10T05:07:30.392Z,28.20
2019-05-10T05:08:06.316Z,27.80
2019-05-10T05:08:38.509Z,27.77
2019-05-10T05:09:11.526Z,27.82
2019-05-10T05:09:44.538Z,27.80
2019-05-10T05:10:17.523Z,27.77
2019-05-10T05:10:50.543Z,27.62
2019-05-10T05:11:23.503Z,27.50
2019-05-10T05:11:56.433Z,27.75
2019-05-10T05:12:29.443Z,27.90
2019-05-10T05:13:02.375Z,27.67
2019-05-10T05:13:35.365Z,27.50
2019-05-10T05:14:09.645Z,27.90
2019-05-10T05:14:43.069Z,27.90
2019-05-10T05:15:16.199Z,27.40
2019-05-10T05:15:49.325Z,27.85
2019-05-10T05:16:22.375Z,28.07
2019-05-10T05:16:55.516Z,27.80
2019-05-10T05:17:28.678Z,27.62
2019-05-10T05:18:01.875Z,27.95
2019-05-10T05:18:34.999Z,27.70
2019-05-10T05:19:08.201Z,27.58
2019-05-10T05:19:41.246Z,27.70
2019-05-10T05:20:14.377Z,27.80
2019-05-10T05:20:47.413Z,27.62
2019-05-10T05:21:20.510Z,27.73
2019-05-10T05:21:53.667Z,27.90
2019-05-10T05:22:26.784Z,27.75
2019-05-10T05:22:59.944Z,28.02
2019-05-10T05:23:33.106Z,27.85
2019-05-10T05:24:06.141Z,27.73
2019-05-10T05:24:39.142Z,27.82
2019-05-10T05:25:12.277Z,28.10
2019-05-10T05:25:45.361Z,27.90
2019-05-10T05:26:18.537Z,28.05
2019-05-10T05:26:51.741Z,28.00
2019-05-10T05:27:24.810Z,27.95
2019-05-10T05:28:07.607Z,27.90
2019-05-10T05:28:33.380Z,27.93
2019-05-10T05:29:06.621Z,28.12
2019-05-10T05:29:39.743Z,28.20
2019-05-10T05:30:14.147Z,28.02
2019-05-10T05:30:47.232Z,28.30
2019-05-10T05:31:21.667Z,27.80
2019-05-10T05:32:00.967Z,27.90
2019-05-10T05:32:29.880Z,28.17
2019-05-10T05:33:02.958Z,27.85
2019-05-10T05:33:36.015Z,28.12
2019-05-10T05:34:09.099Z,28.40
2019-05-10T05:34:42.051Z,28.07
2019-05-10T05:35:15.636Z,27.70
2019-05-10T05:35:48.778Z,28.02
2019-05-10T05:36:21.831Z,27.85
2019-05-10T05:36:54.799Z,28.32
2019-05-10T05:37:27.759Z,28.20
2019-05-10T05:38:00.896Z,28.07
2019-05-10T05:38:33.987Z,28.15
2019-05-10T05:39:07.594Z,27.90
2019-05-10T05:39:40.681Z,27.77
2019-05-10T05:40:14.776Z,28.15
2019-05-10T05:40:47.989Z,28.12
2019-05-10T05:41:22.633Z,28.10
2019-05-10T05:41:56.541Z,28.02
2019-05-10T05:42:30.338Z,28.10
2019-05-10T05:43:08.311Z,28.00
2019-05-10T05:43:45.711Z,27.82
2019-05-10T05:44:13.602Z,27.82
2019-05-10T05:44:46.622Z,28.47
2019-05-10T05:45:19.682Z,28.50
2019-05-10T05:45:53.896Z,28.47
2019-05-10T05:46:26.999Z,28.17
2019-05-10T05:47:00.055Z,28.17
2019-05-10T05:47:40.126Z,28.27
2019-05-10T05:48:09.847Z,28.10
2019-05-10T05:48:42.804Z,28.42
2019-05-10T05:49:15.836Z,28.25
2019-05-10T05:49:49.015Z,27.75
2019-05-10T05:50:23.207Z,28.17
2019-05-10T05:50:56.221Z,27.98
2019-05-10T05:51:29.205Z,28.47
2019-05-10T05:52:02.225Z,28.20
2019-05-10T05:52:35.419Z,28.45
2019-05-10T05:53:08.462Z,28.10
2019-05-10T05:53:42.594Z,28.10
2019-05-10T05:54:20.696Z,28.40
2019-05-10T05:54:52.840Z,28.38
2019-05-10T05:55:30.621Z,28.15
2019-05-10T05:56:03.573Z,27.85
2019-05-10T05:56:37.307Z,28.25
2019-05-10T05:57:10.470Z,27.80
2019-05-10T05:57:43.368Z,28.38
2019-05-10T05:58:25.739Z,28.32
2019-05-10T05:58:51.346Z,28.20
2019-05-10T05:59:26.322Z,28.27
2019-05-10T06:00:04.232Z,28.27
2019-05-10T06:00:37.779Z,28.57
2019-05-10T06:01:09.444Z,28.05
2019-05-10T06:01:42.467Z,28.32
2019-05-10T06:02:15.475Z,28.07
2019-05-10T06:02:48.479Z,28.00
2019-05-10T06:03:27.692Z,28.20
2019-05-10T06:04:00.280Z,28.25
2019-05-10T06:04:31.212Z,28.47
2019-05-10T06:05:04.778Z,28.40
2019-05-10T06:05:37.827Z,28.55
2019-05-10T06:06:21.571Z,28.32
2019-05-10T06:06:46.122Z,28.30
2019-05-10T06:07:19.267Z,28.38
2019-05-10T06:07:52.591Z,28.15
2019-05-10T06:08:29.726Z,28.83
2019-05-10T06:09:04.305Z,28.40
2019-05-10T06:09:37.964Z,28.50
2019-05-10T06:10:16.916Z,28.47
2019-05-10T06:10:56.046Z,28.23
2019-05-10T06:11:22.714Z,28.02
2019-05-10T06:11:57.559Z,28.12
2019-05-10T06:12:30.549Z,28.15
2019-05-10T06:13:03.724Z,27.90
2019-05-10T06:13:37.953Z,28.27
2019-05-10T06:14:13.035Z,28.47
2019-05-10T06:14:49.703Z,28.27
2019-05-10T06:15:23.050Z,28.10
2019-05-10T06:15:59.622Z,27.77
2019-05-10T06:16:30.670Z,27.98
2019-05-10T06:17:03.701Z,28.20
2019-05-10T06:17:38.006Z,28.35
2019-05-10T06:18:12.151Z,28.40
2019-05-10T06:18:47.459Z,28.05
2019-05-10T06:19:28.757Z,28.35
2019-05-10T06:19:55.045Z,28.15
2019-05-10T06:20:28.130Z,28.52
2019-05-10T06:21:02.259Z,27.90
2019-05-10T06:21:35.183Z,28.25
2019-05-10T06:22:09.726Z,27.90
2019-05-10T06:22:45.615Z,27.98
2019-05-10T06:23:17.581Z,28.10
2019-05-10T06:23:50.464Z,28.52
2019-05-10T06:24:23.437Z,28.62
2019-05-10T06:24:56.453Z,28.52
2019-05-10T06:25:39.472Z,28.20
2019-05-10T06:26:06.217Z,28.40
2019-05-10T06:26:39.802Z,28.30
2019-05-10T06:27:12.702Z,28.27
2019-05-10T06:27:45.859Z,28.70
2019-05-10T06:28:27.060Z,28.52
2019-05-10T06:29:01.449Z,28.20
2019-05-10T06:29:28.933Z,28.30
2019-05-10T06:30:02.139Z,28.57
2019-05-10T06:30:35.462Z,28.07
2019-05-10T06:31:08.644Z,28.20
2019-05-10T06:31:41.698Z,28.30
2019-05-10T06:32:15.214Z,28.12
2019-05-10T06:32:53.399Z,28.65
2019-05-10T06:33:23.197Z,28.40
2019-05-10T06:33:56.128Z,28.60
2019-05-10T06:34:31.946Z,28.60
2019-05-10T06:35:05.663Z,28.50
2019-05-10T06:35:38.789Z,28.30
2019-05-10T06:36:12.008Z,28.80
2019-05-10T06:36:45.002Z,28.62
2019-05-10T06:37:17.907Z,28.50
2019-05-10T06:37:51.101Z,28.20
2019-05-10T06:38:24.208Z,28.25
2019-05-10T06:38:57.225Z,28.75
2019-05-10T06:39:30.126Z,28.40
2019-05-10T06:40:03.793Z,28.50
2019-05-10T06:40:44.520Z,28.60
2019-05-10T06:41:16.736Z,29.10
2019-05-10T06:41:50.085Z,28.30
2019-05-10T06:42:21.436Z,28.73
2019-05-10T06:42:54.615Z,28.47
2019-05-10T06:43:27.875Z,28.70
2019-05-10T06:44:00.838Z,28.60
2019-05-10T06:44:33.801Z,28.02
2019-05-10T06:45:14.427Z,29.07
2019-05-10T06:45:46.814Z,28.45
2019-05-10T06:46:16.799Z,28.20
2019-05-10T06:46:51.145Z,28.23
2019-05-10T06:47:24.093Z,28.50
2019-05-10T06:47:57.588Z,28.27
2019-05-10T06:48:33.688Z,27.93
2019-05-10T06:49:10.719Z,28.52
2019-05-10T06:49:50.782Z,28.70
2019-05-10T06:50:17.248Z,28.62
2019-05-10T06:50:51.127Z,28.90
2019-05-10T06:51:24.320Z,29.20
2019-05-10T06:51:57.197Z,28.00
2019-05-10T06:52:30.191Z,28.15
2019-05-10T06:53:07.571Z,28.10
2019-05-10T06:53:42.286Z,27.93
2019-05-10T06:54:14.068Z,28.40
2019-05-10T06:54:49.394Z,28.73
2019-05-10T06:55:22.321Z,28.30
2019-05-10T06:55:55.631Z,28.90
2019-05-10T06:56:28.789Z,28.95
2019-05-10T06:57:02.049Z,28.15
2019-05-10T06:57:35.175Z,28.23
2019-05-10T06:58:08.373Z,28.50
2019-05-10T06:58:41.416Z,29.00
2019-05-10T06:59:19.206Z,28.87
2019-05-10T06:59:49.515Z,28.60
2019-05-10T07:00:22.737Z,28.30
2019-05-10T07:00:55.693Z,28.95
2019-05-10T07:01:28.865Z,28.23
2019-05-10T07:02:01.878Z,28.30
2019-05-10T07:02:34.804Z,28.40
2019-05-10T07:03:07.748Z,28.65
2019-05-10T07:03:41.019Z,28.73
2019-05-10T07:04:14.051Z,28.98
2019-05-10T07:04:47.064Z,28.80
2019-05-10T07:05:20.021Z,28.55
2019-05-10T07:05:53.938Z,28.52
2019-05-10T07:06:26.831Z,28.55
2019-05-10T07:06:59.867Z,28.45
2019-05-10T07:07:44.261Z,29.23
2019-05-10T07:08:16.386Z,28.65
2019-05-10T07:08:45.679Z,28.80
2019-05-10T07:09:17.622Z,28.60
2019-05-10T07:10:15.700Z,28.87
2019-05-10T07:10:25.736Z,28.65
2019-05-10T07:10:58.614Z,28.70
2019-05-10T07:11:31.545Z,28.77
2019-05-10T07:12:09.307Z,29.27
2019-05-10T07:12:39.438Z,29.37
2019-05-10T07:13:12.447Z,29.12
2019-05-10T07:13:47.075Z,28.80
2019-05-10T07:14:25.573Z,29.00
2019-05-10T07:14:57.779Z,28.42
2019-05-10T07:15:30.215Z,28.83
2019-05-10T07:16:03.386Z,28.10
2019-05-10T07:16:36.317Z,28.20
2019-05-10T07:17:10.777Z,28.35